Time;durP1;ratioP1;P1;durP2;ratioP2;P2;SDS_P1;SDS_P2;PMS_P1;PMS_P2;Temp;Humidity;BMP_temperature;BMP_pressure;BME280_temperature;BME280_humidity;BME280_pressure;Samples;Min_cycle;Max_cycle;Signal;HPM_P1;HPM_P2
2021/11/06 00:01:14;;;;;;;30.17;12.60;;;5.20;99.90;;;;;;5070940;28;20208;-56
2021/11/06 00:03:41;;;;;;;20.83;11.77;;;5.30;99.90;;;;;;5070740;28;20282;-61
2021/11/06 00:06:09;;;;;;;17.60;11.10;;;5.20;99.90;;;;;;5070939;28;20609;-56
2021/11/06 00:08:36;;;;;;;14.50;11.67;;;5.30;99.90;;;;;;5071404;28;20235;-56
2021/11/06 00:11:03;;;;;;;13.90;10.50;;;5.20;99.90;;;;;;5071522;28;20216;-55
2021/11/06 00:13:30;;;;;;;14.63;11.60;;;5.10;99.90;;;;;;5071386;28;20228;-56
2021/11/06 00:15:56;;;;;;;17.40;11.87;;;5.10;99.90;;;;;;5071249;28;20661;-56
2021/11/06 00:18:23;;;;;;;18.87;11.13;;;5.00;99.90;;;;;;5070826;28;20258;-59
2021/11/06 00:20:50;;;;;;;19.33;11.60;;;4.90;99.90;;;;;;5070846;28;20738;-59
2021/11/06 00:23:19;;;;;;;19.20;11.37;;;4.90;99.90;;;;;;5070655;28;20664;-58
2021/11/06 00:25:45;;;;;;;26.13;11.70;;;4.90;99.90;;;;;;5070252;28;20224;-59
2021/11/06 00:28:12;;;;;;;23.00;12.53;;;4.80;99.90;;;;;;5070421;28;20209;-58
2021/11/06 00:30:39;;;;;;;23.47;12.10;;;4.70;99.90;;;;;;5070440;28;20263;-59
2021/11/06 00:33:06;;;;;;;32.63;12.93;;;4.60;99.90;;;;;;5070276;28;20208;-58
2021/11/06 00:35:32;;;;;;;18.33;11.10;;;4.60;99.90;;;;;;5070301;28;20216;-59
2021/11/06 00:37:59;;;;;;;16.87;12.17;;;4.50;99.90;;;;;;5070419;28;20209;-58
2021/11/06 00:40:28;;;;;;;20.80;11.60;;;4.50;99.90;;;;;;5070495;28;20211;-59
2021/11/06 00:42:55;;;;;;;32.70;11.97;;;4.40;99.90;;;;;;5070250;28;20705;-59
2021/11/06 00:45:22;;;;;;;87.00;14.17;;;4.50;99.90;;;;;;5070194;28;20717;-59
2021/11/06 00:47:48;;;;;;;59.37;12.87;;;4.50;99.90;;;;;;5073883;28;20212;-59
2021/11/06 00:50:16;;;;;;;32.13;11.23;;;4.60;99.90;;;;;;5074148;28;20212;-59
2021/11/06 00:52:45;;;;;;;48.80;12.60;;;4.60;99.90;;;;;;5074083;28;20205;-58
2021/11/06 00:55:12;;;;;;;76.97;13.50;;;4.60;99.90;;;;;;5073910;28;20240;-59
2021/11/06 00:57:40;;;;;;;24.77;12.30;;;4.60;99.90;;;;;;5073875;28;20286;-59
2021/11/06 01:00:10;;;;;;;22.10;11.90;;;4.70;99.90;;;;;;5073635;28;20208;-59
2021/11/06 01:02:36;;;;;;;17.87;10.80;;;4.70;99.90;;;;;;5074634;28;20213;-59
2021/11/06 01:05:06;;;;;;;17.07;10.53;;;4.70;99.90;;;;;;5074735;28;20231;-59
2021/11/06 01:07:32;;;;;;;16.40;11.97;;;4.70;99.90;;;;;;5074719;28;20209;-59
2021/11/06 01:09:59;;;;;;;20.23;11.50;;;4.70;99.90;;;;;;5074595;28;20695;-59
2021/11/06 01:12:26;;;;;;;19.83;11.20;;;4.70;99.90;;;;;;5073668;28;20209;-59
2021/11/06 01:14:54;;;;;;;14.27;10.27;;;4.60;99.90;;;;;;5081141;28;20597;-58
2021/11/06 01:17:21;;;;;;;18.20;11.13;;;4.40;99.90;;;;;;5074305;28;20205;-58
2021/11/06 01:19:47;;;;;;;17.50;10.87;;;4.20;99.90;;;;;;5073999;28;20208;-59
2021/11/06 01:22:14;;;;;;;21.87;11.77;;;4.20;99.90;;;;;;5074062;28;20209;-59
2021/11/06 01:24:41;;;;;;;17.20;11.63;;;4.20;99.90;;;;;;5073497;28;20224;-61
2021/11/06 01:27:10;;;;;;;17.13;11.13;;;4.20;99.90;;;;;;5074227;28;20211;-58
2021/11/06 01:29:37;;;;;;;24.07;11.10;;;4.30;99.90;;;;;;5075688;28;20200;-59
2021/11/06 01:32:07;;;;;;;20.33;11.13;;;4.40;99.90;;;;;;5075783;28;20201;-62
2021/11/06 01:34:34;;;;;;;19.80;10.33;;;4.40;99.90;;;;;;5074264;28;20582;-59
2021/11/06 01:37:01;;;;;;;22.43;10.83;;;4.40;99.90;;;;;;5073401;28;20204;-59
2021/11/06 01:39:28;;;;;;;21.47;9.97;;;4.40;99.90;;;;;;5073181;28;20213;-59
2021/11/06 01:41:54;;;;;;;19.97;9.70;;;4.40;99.90;;;;;;5073145;28;20209;-59
2021/11/06 01:44:23;;;;;;;29.50;9.90;;;4.50;99.90;;;;;;5073037;28;20251;-59
2021/11/06 01:46:50;;;;;;;18.67;10.50;;;4.50;99.90;;;;;;5072858;28;20753;-59
2021/11/06 01:49:20;;;;;;;29.47;9.70;;;4.60;99.90;;;;;;5072841;28;20205;-59
2021/11/06 01:51:47;;;;;;;16.70;9.13;;;4.60;99.90;;;;;;5072998;28;20288;-59
2021/11/06 01:54:14;;;;;;;25.07;10.37;;;4.70;99.90;;;;;;5072695;28;20228;-59
2021/11/06 01:56:42;;;;;;;18.50;10.00;;;4.80;99.90;;;;;;5072923;28;20201;-59
2021/11/06 01:59:09;;;;;;;15.07;9.33;;;4.80;99.90;;;;;;5072234;28;20213;-59
2021/11/06 02:01:36;;;;;;;15.40;9.40;;;4.80;99.90;;;;;;5072836;28;20212;-58
2021/11/06 02:04:03;;;;;;;51.23;31.43;;;4.80;99.90;;;;;;5072414;28;20598;-58
2021/11/06 02:06:31;;;;;;;55.40;31.50;;;4.80;99.90;;;;;;5072558;28;20224;-60
2021/11/06 02:08:58;;;;;;;28.27;12.83;;;4.80;99.90;;;;;;5072501;28;20208;-60
2021/11/06 02:11:26;;;;;;;27.53;9.27;;;4.80;99.90;;;;;;5072549;28;20209;-59
2021/11/06 02:13:53;;;;;;;51.90;20.87;;;4.80;99.90;;;;;;5072671;28;20236;-60
2021/11/06 02:16:20;;;;;;;29.43;16.67;;;4.70;99.90;;;;;;5072855;28;20204;-60
2021/11/06 02:18:47;;;;;;;18.57;8.80;;;4.70;99.90;;;;;;5072951;28;20638;-59
2021/11/06 02:21:15;;;;;;;24.00;8.10;;;4.70;99.90;;;;;;5072435;28;20205;-60
2021/11/06 02:23:47;;;;;;;26.97;8.43;;;4.70;99.90;;;;;;5073561;28;20221;-59
2021/11/06 02:26:14;;;;;;;22.80;8.17;;;4.70;99.90;;;;;;5072455;28;20229;-58
2021/11/06 02:28:43;;;;;;;25.23;8.40;;;4.70;99.90;;;;;;5072337;28;20338;-58
2021/11/06 02:31:10;;;;;;;26.90;7.90;;;4.60;99.90;;;;;;5072408;28;20204;-59
2021/11/06 02:33:37;;;;;;;31.73;7.80;;;4.60;99.90;;;;;;5071919;28;20232;-58
2021/11/06 02:36:04;;;;;;;38.17;8.13;;;4.60;99.90;;;;;;5072007;28;20213;-58
2021/11/06 02:38:32;;;;;;;20.93;8.00;;;4.70;99.90;;;;;;5072371;28;20221;-59
2021/11/06 02:41:00;;;;;;;35.90;7.90;;;4.70;99.90;;;;;;5072337;28;20649;-59
2021/11/06 02:43:27;;;;;;;41.17;8.13;;;4.80;99.90;;;;;;5072061;28;20225;-58
2021/11/06 02:45:54;;;;;;;42.10;8.77;;;4.70;99.90;;;;;;5071718;28;20700;-58
2021/11/06 02:48:21;;;;;;;28.60;7.80;;;4.70;99.90;;;;;;5071746;28;20250;-58
2021/11/06 02:50:47;;;;;;;36.93;8.63;;;4.70;99.90;;;;;;5072128;28;20589;-59
2021/11/06 02:53:14;;;;;;;30.27;8.20;;;4.70;99.90;;;;;;5072168;28;20205;-58
2021/11/06 02:55:42;;;;;;;36.63;7.97;;;4.70;99.90;;;;;;5071883;28;20201;-58
2021/11/06 02:58:09;;;;;;;27.10;7.00;;;4.70;99.90;;;;;;5071778;28;20204;-58
2021/11/06 03:00:36;;;;;;;30.00;6.80;;;4.80;99.90;;;;;;5071616;28;20205;-59
2021/11/06 03:03:03;;;;;;;36.53;7.73;;;4.80;99.90;;;;;;5071319;28;20205;-58
2021/11/06 03:05:30;;;;;;;39.23;7.30;;;4.70;99.90;;;;;;5071471;28;20228;-58
2021/11/06 03:07:58;;;;;;;29.93;8.10;;;4.80;99.90;;;;;;5071506;28;20217;-58
2021/11/06 03:10:25;;;;;;;39.80;8.53;;;4.80;99.90;;;;;;5071486;28;20292;-58
2021/11/06 03:12:54;;;;;;;24.50;7.67;;;4.90;99.90;;;;;;5071465;28;20207;-58
2021/11/06 03:15:22;;;;;;;22.57;7.80;;;4.90;99.90;;;;;;5071060;28;20221;-57
2021/11/06 03:17:48;;;;;;;31.17;8.67;;;4.90;99.90;;;;;;5070999;28;20213;-58
2021/11/06 03:20:18;;;;;;;31.53;8.77;;;4.90;99.90;;;;;;5071464;28;20211;-58
2021/11/06 03:22:45;;;;;;;28.77;7.90;;;5.00;99.90;;;;;;5071436;28;20251;-58
2021/11/06 03:25:13;;;;;;;33.43;8.77;;;5.00;99.90;;;;;;5071020;28;20225;-58
2021/11/06 03:27:40;;;;;;;31.33;7.97;;;5.10;99.90;;;;;;5071290;28;20270;-59
2021/11/06 03:30:10;;;;;;;37.27;8.03;;;5.00;99.90;;;;;;5071873;28;20212;-58
2021/11/06 03:32:37;;;;;;;31.93;7.93;;;5.00;99.90;;;;;;5071962;28;20205;-58
2021/11/06 03:35:06;;;;;;;29.47;8.80;;;5.10;99.90;;;;;;5071312;28;20240;-58
2021/11/06 03:37:33;;;;;;;41.30;8.73;;;5.00;99.90;;;;;;5071525;28;20201;-58
2021/11/06 03:40:00;;;;;;;30.90;8.23;;;5.10;99.90;;;;;;5071400;28;20231;-57
2021/11/06 03:42:27;;;;;;;30.17;8.63;;;5.10;99.90;;;;;;5071420;28;20621;-58
2021/11/06 03:44:53;;;;;;;22.37;8.60;;;5.00;99.90;;;;;;5071268;28;20599;-57
2021/11/06 03:47:22;;;;;;;41.73;8.93;;;4.90;99.90;;;;;;5071233;28;20734;-58
2021/11/06 03:49:49;;;;;;;27.07;9.40;;;4.90;99.90;;;;;;5070845;28;20282;-58
2021/11/06 03:52:16;;;;;;;32.77;9.60;;;5.00;99.90;;;;;;5070972;28;20200;-58
2021/11/06 03:54:43;;;;;;;35.47;9.77;;;5.20;99.90;;;;;;5070619;28;20221;-59
2021/11/06 03:57:10;;;;;;;42.53;10.10;;;5.30;99.90;;;;;;5070870;28;20581;-58
2021/11/06 03:59:37;;;;;;;23.50;10.63;;;5.40;99.90;;;;;;5071180;28;20205;-58
2021/11/06 04:02:05;;;;;;;39.27;10.80;;;5.50;99.90;;;;;;5070889;28;20270;-58
2021/11/06 04:04:33;;;;;;;27.07;10.53;;;5.50;99.90;;;;;;5070776;28;20231;-58
2021/11/06 04:06:59;;;;;;;26.27;10.23;;;5.60;99.90;;;;;;5070816;28;20232;-58
2021/11/06 04:09:26;;;;;;;37.90;9.97;;;5.60;99.90;;;;;;5070892;28;20213;-58
2021/11/06 04:11:53;;;;;;;27.83;9.80;;;5.80;99.90;;;;;;5071147;28;20258;-59
2021/11/06 04:14:20;;;;;;;34.77;10.53;;;5.90;99.90;;;;;;5070959;28;20315;-59
2021/11/06 04:16:46;;;;;;;27.30;9.47;;;6.00;99.90;;;;;;5070780;28;20205;-59
2021/11/06 04:19:13;;;;;;;43.73;10.13;;;6.00;99.90;;;;;;5070744;28;20201;-59
2021/11/06 04:21:41;;;;;;;39.17;10.87;;;6.00;99.90;;;;;;5073134;28;20215;-59
2021/11/06 04:24:08;;;;;;;56.20;12.47;;;6.00;99.90;;;;;;5075005;28;20852;-58
2021/11/06 04:26:35;;;;;;;37.97;11.73;;;5.90;99.90;;;;;;5074994;28;20220;-58
2021/11/06 04:29:01;;;;;;;34.30;12.23;;;6.10;99.90;;;;;;5074813;28;20208;-58
2021/11/06 04:31:28;;;;;;;39.80;13.10;;;6.20;99.90;;;;;;5074804;28;20579;-58
2021/11/06 04:33:55;;;;;;;33.13;13.00;;;6.20;99.90;;;;;;5074544;28;20608;-59
2021/11/06 04:36:22;;;;;;;38.90;17.03;;;6.10;99.90;;;;;;5074919;28;20205;-59
2021/11/06 04:38:50;;;;;;;42.70;14.03;;;6.10;99.90;;;;;;5074428;28;20209;-59
2021/11/06 04:41:16;;;;;;;37.57;12.93;;;6.10;99.90;;;;;;5074773;28;20204;-59
2021/11/06 04:43:43;;;;;;;31.83;12.63;;;6.00;99.90;;;;;;5073989;28;20248;-59
2021/11/06 04:46:10;;;;;;;28.90;13.33;;;6.10;99.90;;;;;;5074238;28;20266;-59
2021/11/06 04:48:36;;;;;;;31.53;12.93;;;6.20;99.90;;;;;;5074012;28;20598;-59
2021/11/06 04:51:03;;;;;;;31.60;12.57;;;6.30;99.90;;;;;;5074195;28;20201;-59
2021/11/06 04:53:30;;;;;;;28.30;13.87;;;6.40;99.90;;;;;;5073768;28;20595;-59
2021/11/06 04:55:58;;;;;;;39.77;12.93;;;6.50;99.90;;;;;;5074216;28;20209;-60
2021/11/06 04:58:25;;;;;;;46.00;14.00;;;6.60;99.90;;;;;;5073865;28;20258;-59
2021/11/06 05:00:53;;;;;;;64.03;17.03;;;6.70;99.90;;;;;;5073894;28;20216;-59
2021/11/06 05:03:20;;;;;;;35.03;14.73;;;6.80;99.90;;;;;;5073853;28;20262;-59
2021/11/06 05:05:46;;;;;;;46.33;16.13;;;6.80;99.90;;;;;;5073598;28;20205;-59
2021/11/06 05:08:13;;;;;;;40.07;13.37;;;6.80;99.90;;;;;;5073587;28;20584;-59
2021/11/06 05:10:40;;;;;;;60.90;15.47;;;6.70;99.90;;;;;;5073868;28;20219;-59
2021/11/06 05:13:08;;;;;;;35.03;15.73;;;6.70;99.90;;;;;;5073547;28;20696;-59
2021/11/06 05:15:35;;;;;;;49.07;16.13;;;6.70;99.90;;;;;;5073411;28;20695;-59
2021/11/06 05:18:02;;;;;;;38.43;14.97;;;6.80;99.90;;;;;;5073499;28;20209;-59
2021/11/06 05:20:29;;;;;;;49.87;16.93;;;6.80;99.90;;;;;;5073520;28;20224;-59
2021/11/06 05:22:56;;;;;;;43.27;15.87;;;6.70;99.90;;;;;;5073691;28;20208;-59
2021/11/06 05:25:22;;;;;;;47.23;16.10;;;6.70;99.90;;;;;;5073406;28;20282;-59
2021/11/06 05:27:49;;;;;;;36.47;18.37;;;6.70;99.90;;;;;;5073499;28;20231;-59
2021/11/06 05:30:17;;;;;;;34.67;15.13;;;6.70;99.90;;;;;;5073624;28;20231;-59
2021/11/06 05:32:44;;;;;;;40.57;16.87;;;6.80;99.90;;;;;;5072228;28;20205;-60
2021/11/06 05:35:12;;;;;;;45.87;16.63;;;6.80;99.90;;;;;;5072862;28;20228;-60
2021/11/06 05:37:38;;;;;;;33.60;15.43;;;6.90;99.90;;;;;;5073072;28;20198;-60
2021/11/06 05:40:07;;;;;;;33.10;13.90;;;6.90;99.90;;;;;;5073358;28;20208;-60
2021/11/06 05:42:34;;;;;;;69.80;20.23;;;7.00;99.90;;;;;;5073034;28;20701;-59
2021/11/06 05:45:01;;;;;;;40.50;18.10;;;7.10;99.90;;;;;;5073114;28;20251;-59
2021/11/06 05:47:29;;;;;;;30.03;15.47;;;7.10;99.90;;;;;;5072935;28;20228;-59
2021/11/06 05:49:56;;;;;;;31.80;17.00;;;7.30;99.90;;;;;;5073019;28;20209;-59
2021/11/06 05:52:22;;;;;;;20.73;12.03;;;7.30;99.90;;;;;;5073122;28;20201;-59
2021/11/06 05:54:49;;;;;;;31.90;13.00;;;7.30;99.90;;;;;;5072668;28;20229;-59
2021/11/06 05:57:16;;;;;;;38.67;13.60;;;7.30;99.90;;;;;;5072837;28;20205;-59
2021/11/06 05:59:42;;;;;;;25.90;13.80;;;7.40;99.90;;;;;;5072598;28;20208;-59
2021/11/06 06:02:09;;;;;;;25.70;14.00;;;7.40;99.90;;;;;;5072687;28;20216;-59
2021/11/06 06:04:37;;;;;;;29.43;13.00;;;7.40;99.90;;;;;;5072451;28;20236;-59
2021/11/06 06:07:04;;;;;;;30.23;15.33;;;7.40;99.90;;;;;;5072705;28;20251;-60
2021/11/06 06:09:31;;;;;;;37.50;15.93;;;7.50;99.90;;;;;;5073087;28;20208;-59
2021/11/06 06:11:58;;;;;;;36.97;13.50;;;7.50;99.90;;;;;;5072931;28;20204;-59
2021/11/06 06:14:24;;;;;;;29.43;13.03;;;7.50;99.90;;;;;;5072409;28;20221;-60
2021/11/06 06:16:51;;;;;;;36.20;13.97;;;7.40;99.90;;;;;;5072488;28;20201;-60
2021/11/06 06:19:18;;;;;;;34.97;14.60;;;7.30;99.90;;;;;;5072328;28;20212;-59
2021/11/06 06:21:46;;;;;;;30.67;14.70;;;7.20;99.90;;;;;;5072459;28;20204;-60
2021/11/06 06:24:12;;;;;;;30.07;15.13;;;7.20;99.90;;;;;;5072297;28;20231;-60
2021/11/06 06:26:39;;;;;;;25.77;12.70;;;7.20;99.90;;;;;;5072375;28;20228;-60
2021/11/06 06:29:06;;;;;;;26.33;14.23;;;7.20;99.90;;;;;;5072104;28;20209;-60
2021/11/06 06:31:32;;;;;;;27.57;13.17;;;7.30;99.90;;;;;;5072504;28;20205;-59
2021/11/06 06:33:59;;;;;;;27.33;12.97;;;7.30;99.90;;;;;;5071996;28;20240;-60
2021/11/06 06:36:26;;;;;;;22.47;12.67;;;7.30;99.90;;;;;;5072561;28;20208;-60
2021/11/06 06:38:54;;;;;;;21.57;12.07;;;7.30;99.90;;;;;;5072184;28;20413;-59
2021/11/06 06:41:21;;;;;;;23.40;12.67;;;7.40;99.90;;;;;;5072080;28;20266;-60
2021/11/06 06:43:47;;;;;;;22.70;11.37;;;7.40;99.90;;;;;;5071240;28;20731;-60
2021/11/06 06:46:14;;;;;;;18.60;10.60;;;7.50;99.90;;;;;;5072280;28;20213;-60
2021/11/06 06:48:41;;;;;;;27.90;12.73;;;7.50;99.90;;;;;;5071823;28;20231;-60
2021/11/06 06:51:07;;;;;;;26.40;12.43;;;7.60;99.90;;;;;;5072018;28;20201;-61
2021/11/06 06:53:34;;;;;;;29.43;15.27;;;7.60;99.90;;;;;;5071713;28;20228;-61
2021/11/06 06:56:02;;;;;;;20.47;12.80;;;7.70;99.90;;;;;;5071963;28;20617;-58
2021/11/06 06:58:31;;;;;;;22.10;12.57;;;7.70;99.90;;;;;;5071627;28;20580;-61
2021/11/06 07:00:58;;;;;;;27.03;12.37;;;7.80;99.90;;;;;;5072131;28;20355;-61
2021/11/06 07:03:24;;;;;;;21.47;11.30;;;7.90;99.90;;;;;;5071986;28;20228;-60
2021/11/06 07:05:51;;;;;;;17.20;10.20;;;7.90;99.90;;;;;;5071999;28;20231;-60
2021/11/06 07:08:20;;;;;;;26.50;12.70;;;7.90;99.90;;;;;;5071546;28;20224;-59
2021/11/06 07:10:46;;;;;;;21.03;11.63;;;7.90;99.90;;;;;;5071359;28;20201;-59
2021/11/06 07:13:19;;;;;;;28.10;10.77;;;7.90;99.90;;;;;;5071388;28;20212;-59
2021/11/06 07:15:45;;;;;;;25.87;9.80;;;8.00;99.90;;;;;;5071566;28;20216;-60
2021/11/06 07:18:12;;;;;;;18.17;8.70;;;8.00;99.90;;;;;;5071292;28;20624;-61
2021/11/06 07:20:39;;;;;;;19.67;10.60;;;8.00;99.90;;;;;;5071524;28;20233;-60
2021/11/06 07:23:07;;;;;;;33.07;8.87;;;8.00;99.90;;;;;;5071343;28;20681;-61
2021/11/06 07:25:34;;;;;;;13.83;8.03;;;8.10;99.90;;;;;;5071376;28;20301;-62
2021/11/06 07:28:01;;;;;;;21.33;9.80;;;7.90;99.90;;;;;;5071300;28;20243;-60
2021/11/06 07:30:30;;;;;;;14.53;9.40;;;7.80;99.90;;;;;;5071521;28;20282;-62
2021/11/06 07:32:56;;;;;;;21.73;9.03;;;7.80;99.90;;;;;;5071162;28;20205;-59
2021/11/06 07:35:23;;;;;;;17.23;9.67;;;7.80;99.90;;;;;;5084667;22;20236;-55
2021/11/06 07:37:50;;;;;;;18.20;10.23;;;7.80;99.90;;;;;;5070933;28;20205;-56
2021/11/06 07:40:16;;;;;;;17.90;10.17;;;7.90;99.90;;;;;;5071127;28;20204;-57
2021/11/06 07:42:46;;;;;;;18.13;9.53;;;8.10;99.90;;;;;;5071193;28;20212;-56
2021/11/06 07:45:14;;;;;;;22.80;11.20;;;8.30;99.90;;;;;;5070053;28;20301;-59
2021/11/06 07:47:43;;;;;;;19.23;10.93;;;8.50;99.90;;;;;;5090493;28;20224;-62
2021/11/06 07:50:10;;;;;;;14.67;9.67;;;8.50;99.90;;;;;;5090971;28;20230;-57
2021/11/06 07:52:37;;;;;;;17.40;9.93;;;8.60;99.90;;;;;;5091078;28;20238;-57
2021/11/06 07:55:05;;;;;;;18.00;10.63;;;8.60;99.90;;;;;;5090742;28;20228;-56
2021/11/06 07:57:32;;;;;;;18.30;10.10;;;8.70;99.90;;;;;;5091020;28;20621;-55
2021/11/06 07:59:59;;;;;;;20.00;11.67;;;8.80;99.90;;;;;;5091417;28;20203;-56
2021/11/06 08:02:26;;;;;;;18.27;11.50;;;8.90;99.90;;;;;;5091410;28;20629;-56
2021/11/06 08:04:54;;;;;;;18.20;10.23;;;8.90;99.90;;;;;;5091352;28;20735;-57
2021/11/06 08:07:21;;;;;;;22.90;11.60;;;8.80;99.90;;;;;;5092655;28;20699;-58
2021/11/06 08:09:48;;;;;;;18.00;11.67;;;8.70;99.90;;;;;;5091805;28;20208;-56
2021/11/06 08:12:14;;;;;;;20.20;11.97;;;8.70;99.90;;;;;;5090964;28;20211;-59
2021/11/06 08:14:41;;;;;;;18.50;11.63;;;8.70;99.90;;;;;;5090927;28;20224;-57
2021/11/06 08:17:08;;;;;;;16.83;10.47;;;8.60;99.90;;;;;;5090975;28;20207;-56
2021/11/06 08:19:35;;;;;;;14.03;9.07;;;8.60;99.90;;;;;;5090636;28;20681;-56
2021/11/06 08:22:03;;;;;;;11.33;8.30;;;8.70;99.90;;;;;;5090887;28;20690;-55
2021/11/06 08:24:30;;;;;;;11.17;8.17;;;8.90;99.90;;;;;;5090757;28;20224;-55
2021/11/06 08:26:57;;;;;;;12.40;8.87;;;9.00;99.90;;;;;;5091015;28;20208;-57
2021/11/06 08:29:23;;;;;;;15.03;10.60;;;9.10;99.90;;;;;;5090787;28;20204;-56
2021/11/06 08:31:50;;;;;;;42.43;25.97;;;9.10;99.90;;;;;;5090995;28;20215;-56
2021/11/06 08:34:17;;;;;;;15.80;10.87;;;9.30;99.90;;;;;;5090262;28;20328;-58
2021/11/06 08:36:44;;;;;;;13.77;9.03;;;9.50;99.90;;;;;;5091072;28;20200;-55
2021/11/06 08:39:14;;;;;;;12.83;8.83;;;9.60;99.90;;;;;;5091103;28;20201;-56
2021/11/06 08:41:41;;;;;;;13.17;8.77;;;9.80;99.90;;;;;;5090721;28;20668;-58
2021/11/06 08:44:08;;;;;;;13.30;9.20;;;9.80;99.90;;;;;;5090229;28;20231;-59
2021/11/06 08:46:34;;;;;;;18.03;11.17;;;9.80;99.90;;;;;;5090403;28;20680;-58
2021/11/06 08:49:01;;;;;;;14.63;9.90;;;9.90;99.90;;;;;;5090246;28;20232;-58
2021/11/06 08:51:28;;;;;;;20.47;13.27;;;9.90;99.90;;;;;;5090765;28;20216;-57
2021/11/06 08:53:56;;;;;;;19.23;13.20;;;9.90;99.90;;;;;;5090671;28;20224;-56
2021/11/06 08:56:28;;;;;;;19.10;12.13;;;9.90;99.90;;;;;;5090533;28;20204;-56
2021/11/06 08:58:55;;;;;;;25.53;10.63;;;9.90;99.90;;;;;;5090496;28;20196;-56
2021/11/06 09:01:21;;;;;;;17.97;12.47;;;9.90;99.90;;;;;;5090255;28;20208;-57
2021/11/06 09:03:48;;;;;;;18.47;12.20;;;9.70;99.90;;;;;;5090070;28;20239;-56
2021/11/06 09:06:15;;;;;;;18.00;11.97;;;9.60;99.90;;;;;;5090370;28;20261;-56
2021/11/06 09:08:43;;;;;;;21.67;13.30;;;9.50;99.90;;;;;;5093694;28;20627;-56
2021/11/06 09:11:12;;;;;;;20.87;12.77;;;9.60;99.90;;;;;;5093897;28;20307;-58
2021/11/06 09:13:43;;;;;;;20.13;13.00;;;9.60;99.90;;;;;;5094192;28;20328;-57
2021/11/06 09:16:11;;;;;;;19.23;13.23;;;9.70;99.90;;;;;;5093747;28;20259;-62
2021/11/06 09:18:39;;;;;;;24.07;14.40;;;9.90;99.90;;;;;;5093823;28;20208;-64
2021/11/06 09:21:06;;;;;;;19.13;12.57;;;10.00;99.90;;;;;;5093883;28;20200;-62
2021/11/06 09:23:33;;;;;;;22.10;14.13;;;10.10;99.90;;;;;;5093421;28;20235;-59
2021/11/06 09:26:00;;;;;;;20.40;13.70;;;10.20;99.90;;;;;;5093718;28;20231;-62
2021/11/06 09:28:28;;;;;;;20.00;13.27;;;10.30;99.90;;;;;;5093849;28;20227;-60
2021/11/06 09:30:57;;;;;;;18.33;12.93;;;10.50;99.90;;;;;;5094012;28;20204;-62
2021/11/06 09:33:24;;;;;;;19.93;13.37;;;10.50;99.90;;;;;;5093314;28;20683;-59
2021/11/06 09:35:51;;;;;;;23.50;13.97;;;10.60;99.90;;;;;;5093420;28;20231;-57
2021/11/06 09:38:17;;;;;;;21.50;14.83;;;10.60;99.90;;;;;;5093375;28;20302;-57
2021/11/06 09:40:45;;;;;;;21.67;14.47;;;10.60;99.90;;;;;;5093363;28;20204;-60
2021/11/06 09:43:15;;;;;;;22.03;14.47;;;10.80;99.90;;;;;;5093144;28;20208;-58
2021/11/06 09:45:41;;;;;;;21.77;14.67;;;10.90;99.90;;;;;;5093070;28;20235;-57
2021/11/06 09:48:10;;;;;;;17.67;13.33;;;11.00;99.90;;;;;;5092848;28;20227;-61
2021/11/06 09:50:36;;;;;;;19.63;13.20;;;11.10;99.90;;;;;;5093174;28;20265;-58
2021/11/06 09:53:04;;;;;;;22.43;14.20;;;11.10;99.90;;;;;;5092875;28;20663;-58
2021/11/06 09:55:33;;;;;;;20.87;13.80;;;11.00;99.90;;;;;;5092537;28;20715;-57
2021/11/06 09:58:00;;;;;;;21.70;13.50;;;11.00;99.90;;;;;;5092880;28;20207;-60
2021/11/06 10:00:26;;;;;;;20.77;13.70;;;11.10;99.90;;;;;;5093093;28;20204;-59
2021/11/06 10:02:56;;;;;;;19.80;12.70;;;11.20;99.90;;;;;;5092735;28;20676;-57
2021/11/06 10:05:46;;;;;;;20.23;14.00;;;11.30;99.90;;;;;;5092615;28;20231;-57
2021/11/06 10:08:17;;;;;;;19.60;13.20;;;11.50;99.90;;;;;;5092500;28;20289;-59
2021/11/06 10:10:45;;;;;;;18.67;12.83;;;11.60;99.90;;;;;;5092895;28;20200;-58
2021/11/06 10:13:12;;;;;;;19.33;12.07;;;11.60;99.90;;;;;;5092831;28;20235;-57
2021/11/06 10:15:43;;;;;;;20.07;13.07;;;11.50;99.90;;;;;;5093402;28;20227;-63
2021/11/06 10:18:17;;;;;;;18.20;13.37;;;11.30;99.90;;;;;;5092850;28;20668;-59
2021/11/06 10:20:47;;;;;;;17.43;12.67;;;11.10;99.90;;;;;;5092617;28;20744;-57
2021/11/06 10:23:14;;;;;;;19.37;12.60;;;10.90;99.90;;;;;;5092983;28;20254;-56
2021/11/06 10:25:41;;;;;;;17.50;12.53;;;10.80;99.90;;;;;;5092585;28;20709;-60
2021/11/06 10:28:12;;;;;;;18.03;12.80;;;10.80;99.90;;;;;;5092568;28;20269;-57
2021/11/06 10:30:40;;;;;;;18.30;12.33;;;10.80;99.90;;;;;;5093033;28;20208;-60
2021/11/06 10:33:12;;;;;;;17.90;12.20;;;10.90;99.90;;;;;;5092475;28;20208;-61
2021/11/06 10:35:41;;;;;;;17.70;11.70;;;10.80;99.90;;;;;;5092015;28;20257;-60
2021/11/06 10:38:12;;;;;;;25.03;15.13;;;10.80;99.90;;;;;;5092911;28;20208;-60
2021/11/06 10:40:42;;;;;;;18.53;13.10;;;10.80;99.90;;;;;;5092580;28;20668;-57
2021/11/06 10:43:12;;;;;;;18.07;12.77;;;10.90;99.90;;;;;;5092819;28;20211;-59
2021/11/06 10:45:44;;;;;;;20.27;13.30;;;10.80;99.90;;;;;;5091883;28;20612;-57
2021/11/06 10:48:13;;;;;;;21.57;14.83;;;10.70;99.90;;;;;;5092174;28;20301;-60
2021/11/06 10:50:42;;;;;;;18.40;12.90;;;10.60;99.90;;;;;;5092255;28;20208;-59
2021/11/06 10:53:13;;;;;;;21.07;14.40;;;10.30;99.90;;;;;;5092265;28;20204;-58
2021/11/06 10:55:42;;;;;;;22.33;14.80;;;10.20;99.90;;;;;;5091997;28;20224;-61
2021/11/06 10:58:21;;;;;;;23.27;14.40;;;10.30;99.90;;;;;;5091885;28;20234;-59
2021/11/06 11:00:54;;;;;;;23.80;14.63;;;10.30;99.90;;;;;;5091954;28;20211;-59
2021/11/06 11:03:27;;;;;;;20.87;13.93;;;10.20;99.90;;;;;;5091799;28;20219;-58
2021/11/06 11:05:54;;;;;;;20.33;14.10;;;10.30;99.90;;;;;;5092329;28;20575;-59
2021/11/06 11:08:23;;;;;;;20.30;14.17;;;10.40;99.90;;;;;;5091389;28;20220;-61
2021/11/06 11:10:50;;;;;;;22.27;14.10;;;10.40;99.90;;;;;;5092254;28;20203;-62
2021/11/06 11:13:19;;;;;;;20.37;14.33;;;10.50;99.90;;;;;;5091499;28;20549;-58
2021/11/06 11:15:49;;;;;;;22.17;14.67;;;10.80;99.90;;;;;;5091629;28;20294;-63
2021/11/06 11:18:33;;;;;;;20.23;13.53;;;11.00;99.90;;;;;;5091790;28;20196;-58
2021/11/06 11:21:15;;;;;;;23.93;16.03;;;11.30;99.90;;;;;;5091927;28;20204;-58
2021/11/06 11:23:45;;;;;;;18.37;13.50;;;11.40;99.90;;;;;;5092382;28;20278;-59
2021/11/06 11:26:12;;;;;;;20.20;13.57;;;11.40;99.90;;;;;;5091851;28;20562;-57
2021/11/06 11:28:39;;;;;;;16.33;12.20;;;11.40;99.90;;;;;;5091973;28;20216;-58
2021/11/06 11:31:07;;;;;;;18.17;13.67;;;11.30;99.90;;;;;;5091314;28;20232;-62
2021/11/06 11:33:35;;;;;;;19.30;13.43;;;11.30;99.90;;;;;;5091004;28;20204;-58
2021/11/06 11:36:03;;;;;;;19.53;13.67;;;11.30;99.90;;;;;;5091639;28;20281;-61
2021/11/06 11:38:30;;;;;;;21.47;14.03;;;11.10;99.90;;;;;;5091270;28;20204;-61
2021/11/06 11:41:24;;;;;;;17.77;13.93;;;11.10;99.90;;;;;;5091338;28;20204;-60
2021/11/06 11:44:07;;;;;;;21.97;14.73;;;10.90;99.90;;;;;;5091186;28;20224;-60
2021/11/06 11:46:41;;;;;;;21.73;15.27;;;10.50;99.90;;;;;;5091251;28;20204;-58
2021/11/06 11:49:09;;;;;;;22.20;16.17;;;10.30;99.90;;;;;;5090993;28;20231;-58
2021/11/06 11:51:36;;;;;;;19.27;14.27;;;10.60;99.90;;;;;;5091088;28;20212;-58
2021/11/06 11:54:06;;;;;;;19.37;14.03;;;10.90;99.90;;;;;;5091036;28;20231;-60
2021/11/06 11:56:36;;;;;;;19.63;14.47;;;11.20;99.90;;;;;;5090856;28;20204;-59
2021/11/06 11:59:04;;;;;;;21.00;16.03;;;11.50;99.90;;;;;;5091141;28;20207;-60
2021/11/06 12:01:31;;;;;;;18.40;14.83;;;11.70;99.90;;;;;;5090964;28;20211;-58
2021/11/06 12:04:14;;;;;;;18.27;14.67;;;11.90;99.90;;;;;;5090762;28;20285;-57
2021/11/06 12:06:43;;;;;;;19.57;14.77;;;12.10;99.90;;;;;;5090858;28;20684;-60
2021/11/06 12:09:25;;;;;;;19.17;15.07;;;12.30;99.90;;;;;;5090601;28;20641;-58
2021/11/06 12:11:54;;;;;;;21.33;15.87;;;12.50;99.90;;;;;;5090814;28;20204;-59
2021/11/06 12:14:24;;;;;;;16.10;12.63;;;12.60;99.90;;;;;;5090731;28;20592;-57
2021/11/06 12:16:56;;;;;;;19.77;14.63;;;12.60;99.90;;;;;;5090724;28;20233;-60
2021/11/06 12:19:40;;;;;;;17.90;14.60;;;12.60;99.90;;;;;;5090535;28;20686;-58
2021/11/06 12:22:15;;;;;;;20.33;15.97;;;12.60;99.90;;;;;;5090932;28;20574;-58
2021/11/06 12:24:44;;;;;;;22.10;17.37;;;12.60;99.90;;;;;;5091378;28;20231;-58
2021/11/06 12:27:13;;;;;;;20.20;16.57;;;12.50;99.90;;;;;;5090906;28;20207;-58
2021/11/06 12:29:54;;;;;;;19.47;16.40;;;12.50;99.90;;;;;;5090638;28;20230;-58
2021/11/06 12:32:31;;;;;;;19.77;16.03;;;12.40;99.90;;;;;;5091045;28;20211;-58
2021/11/06 12:35:00;;;;;;;21.13;15.40;;;12.40;99.90;;;;;;5090641;28;20281;-58
2021/11/06 12:37:46;;;;;;;21.97;16.93;;;12.40;99.90;;;;;;5090997;28;20211;-58
2021/11/06 12:40:39;;;;;;;23.53;18.57;;;12.50;99.90;;;;;;5089770;28;20214;-58